Albany, IN

7:57 PM EDT on April 25, 2015 (GMT -0400)
Delaware County-Johnson | | Change Station
CLOSE
Current Station
Airport
Location: Muncie,
Elevation: 938 ft
Nearby Weather Stations

Elev 938 ft 40.23 °N, 85.39 °W | Updated 1 hour ago

Overcast
Overcast
45 °F
Feels Like 38 °F
N
16
Wind Variable Wind from East

Today
High -- | Low -- °F
--% Chance of Precip.
Yesterday
High -- | Low -- °F
Precip. -- in
6:48 AM 8:29 PM
Waxing Crescent, 50% visible
Pressure 29.66 in
Visibility 9.0 miles
Clouds Overcast 1300 ft
Windchill 38 °F
Dew Point 41 °F
Humidity 86%
Rainfall 0.89 in
Snow Depth Not available.
UV 0 out of 12
Pollen 6.60 out of 12
Air Quality Not available.
Flu Activity Local Activity
METAR KMIE 252253Z 09014KT 9SM OVC013 07/05 A2967 RMK AO2 SLP044 T00720050

More Conditions Fewer Conditions

Pressure 29.66 in
Visibility 9.0 miles
Clouds Overcast 1300 ft
Windchill 38 °F
Dew Point 41 °F
Humidity 86%
Rainfall 0.89 in
Snow Depth Not available.
UV 0 out of 12
Pollen 6.60 out of 12
Air Quality Not available.
Flu Activity Local Activity
METAR KMIE 252253Z 09014KT 9SM OVC013 07/05 A2967 RMK AO2 SLP044 T00720050

More Conditions Fewer Conditions

10-Day Weather Forecast

Almanac

Astronomy

Apr. 25, 2015 Rise Set
Actual Time
Civil Twilight
Nautical Twilight
Astronomical Twilight
Moon
Length of Visible Light
Length of Day
Tomorrow will be .
, % of the Moon is Illuminated

Today's Extremes

State Highs State Lows

Community

WunderPhotos

Upload Photos

1,816,850 photos uploaded!

WunderBlogs® & News

Nearby

Air Quality

  Air Quality AQ Index Pollutant
Not available.

Snow Depth

Station Depth Elevation

Earthquake Activity

City Distance Mag. Time & Date
Minimum magnitude displayed is 2.5.

Coastal Water Temperatures

Place Temperature

Stations

Nearby Weather Stations

Station Location Temp. Windchill Dew Point Humidity Wind Precip. Elev Updated Type